Íslenskir flugvellir

Veldu flugvelli í þeirri röð sem þeir eiga að birtast og styddu á hnappinn

Uppfært síðast 27.10.2021 - kl. 06:13

SIGMET síðustu 6 klst.

Engin SIGMET skeyti bárust síðustu 6 klst.

Keflavík

METAR síðustu 3 klst

TímiSkeyti
2021-10-27 06.00METAR BIKF 270600Z 12015KT 9999 -RA SCT010 BKN028 BKN042 05/03 Q0978
2021-10-27 05.30METAR BIKF 270530Z 13008KT 9999 VCSH FEW010 BKN023 BKN055 06/03 Q0977
2021-10-27 05.00METAR BIKF 270500Z 14011KT 9999 -RA SCT010 BKN018 OVC037 06/04 Q0977
2021-10-27 04.30METAR BIKF 270430Z 12009KT 9999 -RA SCT008 BKN016 OVC034 06/05 Q0976
2021-10-27 04.00METAR BIKF 270400Z 12010KT 9999 -RA SCT008 BKN016 OVC034 06/05 Q0975
2021-10-27 03.30METAR BIKF 270330Z 08019KT 9999 -RA SCT008 BKN016 OVC034 05/05 Q0975

TAF

TAFBIKF2021-10-27 04.34Z27060611012KT 9999 BKN030 TX06/2714Z TN02/2722Z TEMPO 2706/2708 RA BKN014 BECMG 2708/2710 07012KT

Allur vindur er réttvísandi bæði í Metar og frá sjálfvirkum veðurstöðvum




Aðrir tengdir vefir



Þetta vefsvæði byggir á Eplica